Time;durP1;ratioP1;P1;durP2;ratioP2;P2;SDS_P1;SDS_P2;PMS_P1;PMS_P2;Temp;Humidity;BMP_temperature;BMP_pressure;BME280_temperature;BME280_humidity;BME280_pressure;Samples;Min_cycle;Max_cycle;Signal;HPM_P1;HPM_P2
2021/10/10 00:00:17;;;;;;;16.00;6.82;;;;;;;5.03;94.81;99736.84;5021582;28;20033;-68
2021/10/10 00:02:42;;;;;;;11.43;6.65;;;;;;;5.32;94.89;99765.44;5014256;28;20045;-67
2021/10/10 00:05:08;;;;;;;16.35;6.90;;;;;;;5.39;91.68;99748.59;5032172;28;20075;-68
2021/10/10 00:07:34;;;;;;;12.55;7.13;;;;;;;5.62;90.86;99773.25;5021948;28;20026;-67
2021/10/10 00:09:59;;;;;;;14.93;6.15;;;;;;;5.60;90.73;99772.53;5030358;28;20026;-67
2021/10/10 00:12:24;;;;;;;17.83;8.27;;;;;;;5.70;90.98;99775.19;5016075;28;20029;-67
2021/10/10 00:14:50;;;;;;;15.35;8.07;;;;;;;5.76;89.97;99779.13;5027719;28;20034;-67
2021/10/10 00:17:16;;;;;;;14.10;7.45;;;;;;;5.76;89.33;99779.94;5014756;28;20038;-68
2021/10/10 00:19:41;;;;;;;12.25;6.53;;;;;;;5.55;88.42;99785.56;5017949;28;20037;-68
2021/10/10 00:22:07;;;;;;;12.50;6.75;;;;;;;5.33;89.67;99788.59;5028067;28;20025;-68
2021/10/10 00:24:32;;;;;;;16.50;7.07;;;;;;;5.26;91.13;99783.81;5016626;28;20029;-68
2021/10/10 00:26:57;;;;;;;12.98;7.10;;;;;;;5.00;92.40;99782.72;5029085;28;20049;-68
2021/10/10 00:29:23;;;;;;;14.23;6.85;;;;;;;4.86;94.56;99781.34;5031195;28;20033;-68
2021/10/10 00:31:49;;;;;;;12.40;6.97;;;;;;;4.76;95.72;99775.16;5035606;28;20041;-67
2021/10/10 00:34:14;;;;;;;11.82;6.60;;;;;;;4.74;96.13;99774.44;5028305;28;20033;-67
2021/10/10 00:36:40;;;;;;;15.25;7.45;;;;;;;4.83;96.01;99773.59;5035771;28;20124;-67
2021/10/10 00:39:05;;;;;;;12.90;7.32;;;;;;;4.83;95.77;99760.19;5034352;28;20087;-68
2021/10/10 00:41:30;;;;;;;16.52;7.68;;;;;;;5.01;95.55;99773.72;5028908;28;20061;-68
2021/10/10 00:43:56;;;;;;;12.43;6.93;;;;;;;5.00;95.39;99772.00;5021738;28;20034;-67
2021/10/10 00:46:21;;;;;;;17.60;7.55;;;;;;;4.97;93.83;99765.09;5037043;28;20060;-68
2021/10/10 00:48:46;;;;;;;18.85;8.15;;;;;;;4.93;94.31;99766.38;5037487;28;20076;-68
2021/10/10 00:51:12;;;;;;;19.23;7.97;;;;;;;4.99;93.86;99756.91;5034263;28;20079;-68
2021/10/10 00:53:39;;;;;;;20.92;8.18;;;;;;;4.97;93.82;99766.94;5036329;28;20538;-68
2021/10/10 00:56:05;;;;;;;18.17;9.05;;;;;;;4.87;93.54;99744.66;5033245;28;20025;-68
2021/10/10 00:58:32;;;;;;;20.70;10.02;;;;;;;4.90;93.62;99752.41;5029890;28;20842;-67
2021/10/10 01:00:58;;;;;;;17.20;8.75;;;;;;;4.91;93.95;99752.28;5031069;28;20120;-67
2021/10/10 01:03:24;;;;;;;24.13;9.23;;;;;;;4.82;93.45;99745.94;5021388;28;20097;-67
2021/10/10 01:05:50;;;;;;;23.90;10.75;;;;;;;4.61;94.00;99743.44;5010763;28;20489;-67
2021/10/10 01:08:17;;;;;;;20.02;9.68;;;;;;;4.60;94.86;99755.13;5029472;28;20029;-67
2021/10/10 01:10:46;;;;;;;18.50;9.23;;;;;;;4.52;95.25;99762.19;5018838;28;20086;-67
2021/10/10 01:13:19;;;;;;;;;;;;;;;4.47;96.23;99762.59;5028567;28;20078;-67
2021/10/10 01:15:44;;;;;;;15.38;8.13;;;;;;;4.37;96.72;99756.38;5020884;28;19912;-67
2021/10/10 01:18:10;;;;;;;20.42;9.35;;;;;;;4.39;97.15;99757.09;5029863;28;20090;-67
2021/10/10 01:20:46;;;;;;;17.35;8.82;;;;;;;4.36;97.56;99760.06;5017151;28;20042;-67
2021/10/10 01:23:12;;;;;;;17.60;8.45;;;;;;;4.34;96.57;99757.50;5028193;28;20033;-67
2021/10/10 01:25:37;;;;;;;22.08;10.55;;;;;;;4.23;96.72;99760.31;5028380;28;20091;-67
2021/10/10 01:28:04;;;;;;;16.33;9.02;;;;;;;4.18;97.00;99758.06;5030607;28;20032;-67
2021/10/10 01:30:29;;;;;;;15.48;8.43;;;;;;;4.08;96.73;99733.09;5029902;28;20021;-67
2021/10/10 01:32:56;;;;;;;13.90;7.75;;;;;;;4.14;97.76;99731.72;5022881;28;20029;-68
2021/10/10 01:35:22;;;;;;;15.48;7.70;;;;;;;4.26;97.64;99748.50;5030822;28;20031;-68
2021/10/10 01:37:47;;;;;;;14.30;7.22;;;;;;;4.31;97.94;99741.72;5029028;28;20132;-68
2021/10/10 01:40:13;;;;;;;12.05;7.13;;;;;;;4.30;99.01;99749.91;5018633;28;20026;-68
2021/10/10 01:42:39;;;;;;;17.00;8.05;;;;;;;4.21;99.44;99737.34;5052660;28;20021;-68
2021/10/10 01:45:13;;;;;;;15.02;7.32;;;;;;;4.26;97.84;99745.81;5054043;28;20076;-68
2021/10/10 01:47:38;;;;;;;16.60;8.50;;;;;;;4.13;97.65;99752.28;5053448;28;20026;-68
2021/10/10 01:50:04;;;;;;;19.70;8.10;;;;;;;4.12;98.22;99745.22;5025062;28;20026;-68
2021/10/10 01:52:29;;;;;;;19.83;8.68;;;;;;;4.00;99.21;99743.66;5026867;28;20364;-67
2021/10/10 01:54:55;;;;;;;14.02;7.80;;;;;;;4.05;100.00;99738.72;5023027;28;20041;-67
2021/10/10 01:57:20;;;;;;;18.20;8.65;;;;;;;4.07;100.00;99736.75;5030441;28;20029;-68
2021/10/10 01:59:45;;;;;;;21.25;9.38;;;;;;;4.07;100.00;99744.81;5016640;28;20124;-67
2021/10/10 02:02:10;;;;;;;16.30;8.52;;;;;;;4.11;100.00;99740.88;5021893;28;20056;-68
2021/10/10 02:04:36;;;;;;;15.45;7.57;;;;;;;4.15;99.27;99741.44;5010561;28;20788;-67
2021/10/10 02:07:01;;;;;;;15.98;8.32;;;;;;;3.97;99.22;99719.84;5027846;28;20036;-68
2021/10/10 02:09:27;;;;;;;19.25;8.35;;;;;;;3.99;98.89;99731.25;5017992;28;20029;-67
2021/10/10 02:11:52;;;;;;;16.00;7.57;;;;;;;3.93;98.48;99731.81;5022627;28;20076;-67
2021/10/10 02:14:17;;;;;;;14.52;7.25;;;;;;;3.87;98.67;99729.69;5023626;28;20025;-67
2021/10/10 02:16:42;;;;;;;16.70;8.32;;;;;;;3.85;99.09;99726.28;5023701;28;20033;-67
2021/10/10 02:19:08;;;;;;;21.00;7.70;;;;;;;3.82;98.53;99731.91;5028407;28;20040;-67
2021/10/10 02:21:33;;;;;;;17.92;7.72;;;;;;;3.78;98.96;99725.16;5023259;28;20172;-67
2021/10/10 02:23:58;;;;;;;15.02;7.18;;;;;;;3.70;98.93;99729.38;5022245;28;20025;-67
2021/10/10 02:26:23;;;;;;;14.75;6.93;;;;;;;3.82;99.09;99731.91;5028828;28;20037;-67
2021/10/10 02:28:49;;;;;;;13.48;7.03;;;;;;;3.74;99.58;99744.16;5030037;28;20029;-67
2021/10/10 02:31:14;;;;;;;13.68;7.07;;;;;;;3.61;99.55;99722.13;5029702;28;20041;-67
2021/10/10 02:33:39;;;;;;;13.25;6.68;;;;;;;3.63;100.00;99736.25;5029035;28;20398;-67
2021/10/10 02:36:05;;;;;;;12.32;6.70;;;;;;;3.61;100.00;99732.00;5021766;28;20083;-67
2021/10/10 02:38:30;;;;;;;17.67;7.32;;;;;;;3.58;100.00;99730.44;5019938;28;20029;-67
2021/10/10 02:40:55;;;;;;;12.05;6.70;;;;;;;3.58;100.00;99737.63;5013478;28;20120;-68
2021/10/10 02:43:21;;;;;;;13.23;7.00;;;;;;;3.55;100.00;99751.28;5022077;28;20041;-68
2021/10/10 02:45:46;;;;;;;18.90;8.18;;;;;;;3.51;100.00;99750.69;5028667;28;20451;-67
2021/10/10 02:48:11;;;;;;;14.27;7.50;;;;;;;3.42;100.00;99747.00;5017068;28;20025;-67
2021/10/10 02:50:36;;;;;;;14.25;6.65;;;;;;;3.32;100.00;99746.13;5028277;28;20025;-67
2021/10/10 02:53:02;;;;;;;13.32;7.70;;;;;;;3.43;100.00;99742.50;5014679;28;20038;-67
2021/10/10 02:55:28;;;;;;;13.13;7.10;;;;;;;3.46;100.00;99750.28;5010269;28;20060;-67
2021/10/10 02:57:53;;;;;;;14.00;7.63;;;;;;;3.46;100.00;99747.59;5018247;28;20037;-67
2021/10/10 03:00:18;;;;;;;17.15;7.60;;;;;;;3.56;100.00;99747.63;5029072;28;20053;-67
2021/10/10 03:02:44;;;;;;;12.32;7.72;;;;;;;3.63;100.00;99744.25;5027449;28;20056;-67
2021/10/10 03:05:09;;;;;;;18.17;8.35;;;;;;;3.67;100.00;99740.34;5019402;28;20169;-67
2021/10/10 03:07:34;;;;;;;16.27;8.02;;;;;;;3.58;100.00;99746.50;5022555;28;20486;-67
2021/10/10 03:09:59;;;;;;;17.45;8.18;;;;;;;3.53;100.00;99753.25;5029673;28;20681;-67
2021/10/10 03:12:25;;;;;;;16.35;8.18;;;;;;;3.43;100.00;99747.84;5026432;28;20025;-67
2021/10/10 03:14:50;;;;;;;15.32;8.73;;;;;;;3.38;100.00;99750.06;5010480;28;20044;-68
2021/10/10 03:17:15;;;;;;;17.95;8.38;;;;;;;3.48;100.00;99745.63;5014273;28;20040;-67
2021/10/10 03:19:41;;;;;;;19.40;8.25;;;;;;;3.54;100.00;99739.75;5029035;28;20391;-67
2021/10/10 03:22:06;;;;;;;19.65;9.05;;;;;;;3.59;100.00;99729.47;5023199;28;20075;-68
2021/10/10 03:24:31;;;;;;;18.15;8.77;;;;;;;3.62;100.00;99737.22;5024792;28;20029;-67
2021/10/10 03:26:57;;;;;;;15.55;8.90;;;;;;;3.76;100.00;99732.47;5030062;28;20112;-67
2021/10/10 03:29:22;;;;;;;21.83;8.98;;;;;;;3.78;100.00;99728.69;5033143;28;20025;-67
2021/10/10 03:31:48;;;;;;;14.57;7.93;;;;;;;3.51;100.00;99724.81;5026650;28;20072;-67
2021/10/10 03:34:13;;;;;;;16.15;8.95;;;;;;;3.48;100.00;99717.06;5029537;28;20490;-67
2021/10/10 03:36:38;;;;;;;17.85;8.90;;;;;;;3.58;100.00;99733.13;5018037;28;20045;-67
2021/10/10 03:39:04;;;;;;;19.65;8.80;;;;;;;3.48;100.00;99722.41;5030507;28;20107;-67
2021/10/10 03:41:29;;;;;;;15.68;8.50;;;;;;;3.48;100.00;99729.56;5030669;28;20108;-67
2021/10/10 03:43:54;;;;;;;19.15;9.93;;;;;;;3.31;100.00;99728.38;5033139;28;20040;-67
2021/10/10 03:46:20;;;;;;;19.08;9.10;;;;;;;3.15;100.00;99720.00;5036640;28;20064;-67
2021/10/10 03:48:45;;;;;;;20.15;9.63;;;;;;;3.17;100.00;99731.41;5027999;28;20065;-67
2021/10/10 03:51:10;;;;;;;15.90;8.63;;;;;;;3.15;100.00;99731.53;5018591;28;20497;-67
2021/10/10 03:56:13;;;;;;;14.90;8.25;;;;;;;3.03;100.00;99724.56;5036037;28;20103;-67
2021/10/10 03:58:39;;;;;;;12.82;7.22;;;;;;;2.96;100.00;99728.75;5039775;28;20029;-67
2021/10/10 04:01:04;;;;;;;15.43;7.45;;;;;;;2.90;100.00;99727.47;5052675;28;20026;-67
2021/10/10 04:03:30;;;;;;;16.17;7.10;;;;;;;2.81;100.00;99725.59;5053402;28;20028;-67
2021/10/10 04:05:55;;;;;;;13.93;7.85;;;;;;;2.81;100.00;99730.94;5038787;28;20017;-68
2021/10/10 04:08:20;;;;;;;17.17;7.65;;;;;;;2.79;100.00;99730.22;5054606;28;20025;-67
2021/10/10 04:10:46;;;;;;;16.10;7.80;;;;;;;2.69;100.00;99730.13;5055087;28;20022;-68
2021/10/10 04:13:11;;;;;;;16.65;8.02;;;;;;;2.59;100.00;99721.19;5055953;28;20037;-68
2021/10/10 04:15:37;;;;;;;17.80;8.85;;;;;;;2.75;100.00;99734.09;5056185;28;20043;-68
2021/10/10 04:18:03;;;;;;;20.38;8.48;;;;;;;2.79;100.00;99735.56;5055143;28;20017;-68
2021/10/10 04:20:28;;;;;;;15.57;8.55;;;;;;;2.83;100.00;99735.16;5046397;28;20526;-68
2021/10/10 04:22:53;;;;;;;12.57;7.70;;;;;;;2.66;100.00;99722.38;5049990;28;20022;-68
2021/10/10 04:25:19;;;;;;;18.08;7.57;;;;;;;2.53;100.00;99717.22;5034096;28;20407;-68
2021/10/10 04:27:44;;;;;;;20.30;8.73;;;;;;;2.57;100.00;99733.88;5034975;28;20112;-67
2021/10/10 04:30:12;;;;;;;18.15;8.77;;;;;;;2.64;100.00;99743.88;5034716;28;20059;-67
2021/10/10 04:32:39;;;;;;;15.88;8.00;;;;;;;2.66;100.00;99743.75;5022720;28;20038;-67
2021/10/10 04:35:04;;;;;;;13.90;8.23;;;;;;;2.62;100.00;99743.19;5016007;28;20038;-68
2021/10/10 04:37:30;;;;;;;14.65;8.13;;;;;;;2.56;100.00;99740.16;5017638;28;20510;-67
2021/10/10 04:39:55;;;;;;;23.77;9.35;;;;;;;2.46;100.00;99736.56;5046912;28;20098;-67
2021/10/10 04:42:20;;;;;;;14.50;8.02;;;;;;;2.45;100.00;99734.88;5032836;28;20032;-68
2021/10/10 04:44:45;;;;;;;19.35;8.38;;;;;;;2.33;100.00;99726.06;5036049;28;20026;-67
2021/10/10 04:47:11;;;;;;;15.73;8.63;;;;;;;2.30;100.00;99732.50;5034760;28;20044;-68
2021/10/10 04:49:36;;;;;;;15.23;8.32;;;;;;;2.31;100.00;99728.88;5034602;28;20029;-68
2021/10/10 04:52:02;;;;;;;20.35;8.65;;;;;;;2.06;100.00;99705.19;5029333;28;20017;-68
2021/10/10 04:54:33;;;;;;;15.73;8.32;;;;;;;2.21;100.00;99703.06;5022613;28;20029;-67
2021/10/10 04:56:59;;;;;;;15.75;9.18;;;;;;;2.29;100.00;99721.97;5025080;28;20056;-67
2021/10/10 04:59:24;;;;;;;15.02;8.18;;;;;;;2.26;100.00;99716.88;5042072;28;20041;-75
2021/10/10 05:01:49;;;;;;;19.13;8.00;;;;;;;2.28;100.00;99710.44;5053736;28;20048;-75
2021/10/10 05:04:15;;;;;;;18.10;8.40;;;;;;;2.27;100.00;99711.41;5053797;28;20029;-74
2021/10/10 05:06:40;;;;;;;19.77;7.70;;;;;;;2.30;100.00;99710.31;5055989;28;20033;-78
2021/10/10 05:09:05;;;;;;;14.77;7.70;;;;;;;2.11;100.00;99713.66;5055214;28;20033;-79
2021/10/10 05:11:31;;;;;;;14.98;7.40;;;;;;;2.36;100.00;99733.84;5054432;28;20029;-75
2021/10/10 05:13:57;;;;;;;13.82;7.82;;;;;;;2.09;100.00;99715.59;5056145;28;20037;-76
2021/10/10 05:16:23;;;;;;;14.05;7.40;;;;;;;2.04;100.00;99739.16;5052258;28;20037;-73
2021/10/10 05:18:49;;;;;;;16.40;7.03;;;;;;;1.98;100.00;99732.50;5050450;28;20046;-76
2021/10/10 05:21:14;;;;;;;13.48;6.80;;;;;;;1.98;100.00;99720.00;5050935;28;20029;-76
2021/10/10 05:23:40;;;;;;;11.68;6.65;;;;;;;2.12;100.00;99734.03;5053243;28;20029;-75
2021/10/10 05:26:06;;;;;;;14.50;7.50;;;;;;;1.93;100.00;99706.19;5053212;28;20044;-72
2021/10/10 05:28:32;;;;;;;16.13;7.85;;;;;;;2.04;100.00;99726.66;5053998;28;20107;-71
2021/10/10 05:30:57;;;;;;;16.10;7.25;;;;;;;1.95;100.00;99725.59;5053434;28;20073;-72
2021/10/10 05:33:23;;;;;;;13.55;7.15;;;;;;;2.05;100.00;99739.03;5053116;28;20032;-76
2021/10/10 05:35:48;;;;;;;12.77;7.28;;;;;;;2.22;100.00;99744.81;5051523;28;20025;-71
2021/10/10 05:38:16;;;;;;;16.25;8.07;;;;;;;2.21;100.00;99738.63;5036369;28;20397;-71
2021/10/10 05:40:41;;;;;;;16.40;7.63;;;;;;;2.11;100.00;99735.84;5033322;28;20022;-72
2021/10/10 05:43:06;;;;;;;14.10;7.00;;;;;;;2.23;100.00;99746.50;5032165;28;20380;-70
2021/10/10 05:45:32;;;;;;;15.15;7.28;;;;;;;2.18;100.00;99752.22;5031584;28;20032;-71
2021/10/10 05:47:57;;;;;;;14.23;7.97;;;;;;;2.16;100.00;99746.16;5034324;28;20120;-71
2021/10/10 05:50:22;;;;;;;16.55;8.10;;;;;;;2.08;100.00;99745.94;5031098;28;20108;-77
2021/10/10 05:52:49;;;;;;;16.58;8.55;;;;;;;2.08;100.00;99732.59;5031708;28;20072;-76
2021/10/10 05:55:15;;;;;;;16.20;8.07;;;;;;;2.30;100.00;99732.50;5035915;28;20027;-76
2021/10/10 05:57:48;;;;;;;14.02;7.45;;;;;;;2.31;100.00;99739.56;5033075;28;20033;-76
2021/10/10 06:00:15;;;;;;;16.95;7.32;;;;;;;2.47;100.00;99757.81;5029899;28;20029;-68
2021/10/10 06:02:44;;;;;;;14.02;7.65;;;;;;;2.50;100.00;99759.38;5031171;28;20034;-70
2021/10/10 06:05:10;;;;;;;18.88;7.55;;;;;;;2.71;100.00;99765.59;5031945;28;20029;-79
2021/10/10 06:07:37;;;;;;;13.98;8.07;;;;;;;3.59;99.98;99758.91;5028021;28;20034;-68
2021/10/10 06:10:04;;;;;;;15.07;7.40;;;;;;;5.13;90.88;99751.09;5030272;28;20382;-73
2021/10/10 06:12:30;;;;;;;14.35;6.57;;;;;;;6.47;81.06;99751.56;5028891;28;20025;-67
2021/10/10 06:14:55;;;;;;;11.30;6.45;;;;;;;7.56;77.37;99743.09;5021981;28;20033;-67
2021/10/10 06:17:21;;;;;;;13.88;6.68;;;;;;;8.50;70.26;99753.69;5021328;28;20116;-67
2021/10/10 06:19:47;;;;;;;8.43;5.32;;;;;;;9.69;69.21;99740.53;5029667;28;20099;-67
2021/10/10 06:22:12;;;;;;;16.05;6.28;;;;;;;10.21;62.32;99738.09;5029379;28;20033;-67
2021/10/10 06:24:37;;;;;;;9.55;5.78;;;;;;;10.47;60.60;99735.09;5029419;28;20032;-68
2021/10/10 06:27:03;;;;;;;15.07;6.10;;;;;;;11.25;58.54;99745.78;5019241;28;20026;-68
2021/10/10 06:29:29;;;;;;;9.50;5.72;;;;;;;11.52;56.34;99742.44;5018444;28;20041;-68
2021/10/10 06:31:54;;;;;;;11.35;6.13;;;;;;;11.63;56.76;99738.41;5035900;28;20018;-67
2021/10/10 06:34:19;;;;;;;13.20;5.88;;;;;;;11.99;56.79;99749.38;5015498;28;20041;-68
2021/10/10 06:36:45;;;;;;;9.65;5.80;;;;;;;13.15;52.30;99739.28;5024252;28;20033;-66
2021/10/10 06:39:10;;;;;;;11.35;5.43;;;;;;;13.58;49.91;99736.47;5019936;28;20037;-66
2021/10/10 06:41:35;;;;;;;14.38;6.10;;;;;;;12.85;49.62;99741.31;5022121;28;20558;-67
2021/10/10 06:44:00;;;;;;;12.23;5.50;;;;;;;13.73;48.72;99738.25;5017013;28;20041;-66
2021/10/10 06:46:26;;;;;;;9.13;5.72;;;;;;;13.64;48.62;99725.84;5017736;28;20029;-75
2021/10/10 06:48:51;;;;;;;13.77;6.20;;;;;;;13.18;49.95;99743.50;5030178;28;20421;-74
2021/10/10 06:51:17;;;;;;;18.58;6.55;;;;;;;14.05;48.75;99727.72;5032171;28;20021;-75
2021/10/10 06:53:42;;;;;;;11.02;6.57;;;;;;;13.70;48.79;99735.91;5027931;28;20034;-72
2021/10/10 06:56:08;;;;;;;12.98;6.85;;;;;;;14.34;48.01;99738.28;5031332;28;20438;-76
2021/10/10 06:58:33;;;;;;;14.25;6.75;;;;;;;15.59;46.13;99743.16;5029718;28;20037;-73
2021/10/10 07:00:59;;;;;;;10.95;6.57;;;;;;;15.72;44.81;99735.84;5031720;28;20041;-73
2021/10/10 07:03:24;;;;;;;15.15;7.05;;;;;;;15.04;46.87;99747.03;5030757;28;20056;-74
2021/10/10 07:05:50;;;;;;;12.10;6.07;;;;;;;15.45;45.97;99737.75;5034807;28;20069;-71
2021/10/10 07:08:15;;;;;;;10.23;6.43;;;;;;;15.84;44.96;99743.38;5035470;28;20021;-76
2021/10/10 07:10:40;;;;;;;12.40;6.85;;;;;;;15.78;44.61;99728.69;5034801;28;20112;-73
2021/10/10 07:13:06;;;;;;;12.55;7.03;;;;;;;16.81;42.71;99733.25;5034056;28;20032;-73
2021/10/10 07:15:33;;;;;;;18.23;7.80;;;;;;;16.60;43.02;99735.22;5035709;28;20079;-73
2021/10/10 07:18:00;;;;;;;15.93;8.18;;;;;;;16.69;42.21;99751.34;5027026;28;20037;-73
2021/10/10 07:20:51;;;;;;;12.35;7.38;;;;;;;17.17;42.11;99739.91;5037112;28;20037;-73
2021/10/10 07:25:51;;;;;;;13.98;7.75;;;;;;;17.90;39.95;99745.53;5034146;28;20075;-68
2021/10/10 07:28:16;;;;;;;15.25;7.78;;;;;;;17.93;40.21;99749.69;5026219;28;20046;-67
2021/10/10 07:30:41;;;;;;;13.13;7.68;;;;;;;18.16;39.98;99749.00;5037350;28;20087;-77
2021/10/10 07:33:07;;;;;;;12.82;7.65;;;;;;;18.43;40.18;99738.53;5048393;28;20111;-74
2021/10/10 07:35:32;;;;;;;11.13;7.53;;;;;;;18.95;39.21;99727.06;5049185;28;20529;-75
2021/10/10 07:37:57;;;;;;;14.07;7.60;;;;;;;19.73;37.55;99739.66;5046949;28;20075;-74
2021/10/10 07:40:23;;;;;;;11.68;7.15;;;;;;;19.91;36.79;99755.97;5045246;28;20033;-74
2021/10/10 07:42:48;;;;;;;13.60;7.35;;;;;;;18.97;39.13;99755.09;5043980;28;20036;-74
2021/10/10 07:45:18;;;;;;;12.20;7.22;;;;;;;20.11;36.60;99749.25;5042525;28;20022;-74
2021/10/10 07:47:50;;;;;;;13.48;7.55;;;;;;;20.98;34.83;99735.25;5036391;28;20025;-76
2021/10/10 07:50:18;;;;;;;11.45;7.28;;;;;;;20.67;36.03;99755.91;5029048;28;20056;-72
2021/10/10 07:52:43;;;;;;;11.55;7.47;;;;;;;21.39;34.33;99752.47;5032365;28;20037;-74
2021/10/10 07:55:09;;;;;;;15.48;7.53;;;;;;;20.87;35.35;99751.84;5025107;28;20090;-75
2021/10/10 07:57:34;;;;;;;13.38;7.57;;;;;;;21.41;34.98;99742.06;5019305;28;20040;-74
2021/10/10 08:00:00;;;;;;;15.48;7.07;;;;;;;21.88;34.28;99738.88;5027625;28;20041;-75
2021/10/10 08:02:27;;;;;;;10.50;6.57;;;;;;;23.28;32.76;99750.38;5036021;28;20036;-77
2021/10/10 08:04:52;;;;;;;10.77;6.53;;;;;;;23.21;31.40;99734.00;5031736;28;20033;-75
2021/10/10 08:07:17;;;;;;;15.40;6.97;;;;;;;23.93;31.15;99745.59;5033562;28;20024;-77
2021/10/10 08:09:43;;;;;;;12.65;7.40;;;;;;;24.32;29.98;99739.69;5031030;28;20060;-73
2021/10/10 08:12:08;;;;;;;10.30;6.82;;;;;;;24.24;30.36;99741.84;5032415;28;20109;-74
2021/10/10 08:14:33;;;;;;;11.25;6.93;;;;;;;24.63;30.00;99744.22;5028306;28;20029;-75
2021/10/10 08:16:59;;;;;;;12.60;7.20;;;;;;;23.62;31.13;99737.06;5033966;28;20418;-74
2021/10/10 08:19:24;;;;;;;14.50;7.22;;;;;;;24.50;30.98;99739.22;5036112;28;20033;-74
2021/10/10 08:21:50;;;;;;;12.45;7.90;;;;;;;24.86;29.68;99725.44;5030809;28;20547;-76
2021/10/10 08:24:18;;;;;;;12.73;6.75;;;;;;;24.84;30.51;99738.75;5030441;28;20395;-73
2021/10/10 08:26:43;;;;;;;12.43;6.95;;;;;;;25.30;29.02;99742.38;5027979;28;20026;-71
2021/10/10 08:29:09;;;;;;;11.18;7.25;;;;;;;25.03;29.31;99742.63;5029461;28;20033;-71
2021/10/10 08:31:34;;;;;;;10.07;6.78;;;;;;;25.83;28.12;99742.00;5013860;28;20026;-71
2021/10/10 08:33:59;;;;;;;11.18;7.22;;;;;;;25.83;29.01;99749.50;5019858;28;20052;-71
2021/10/10 08:36:25;;;;;;;9.93;6.95;;;;;;;25.51;29.31;99742.34;5015911;28;20064;-71
2021/10/10 08:38:50;;;;;;;13.27;7.15;;;;;;;26.01;28.71;99746.16;5012311;28;20036;-71
2021/10/10 08:41:20;;;;;;;11.63;6.85;;;;;;;26.10;28.44;99744.47;5022765;28;20047;-71
2021/10/10 08:43:48;;;;;;;12.25;7.60;;;;;;;25.99;28.29;99740.91;5021352;28;20063;-71
2021/10/10 08:46:14;;;;;;;11.60;7.30;;;;;;;25.74;28.73;99746.47;5028597;28;20029;-71
2021/10/10 08:48:40;;;;;;;10.70;6.97;;;;;;;25.65;29.19;99751.78;5028793;28;20033;-71
2021/10/10 08:51:05;;;;;;;16.05;7.32;;;;;;;25.53;28.92;99745.69;5020777;28;20391;-71
2021/10/10 08:53:30;;;;;;;9.25;7.00;;;;;;;26.17;28.54;99756.09;5030503;28;20505;-71
2021/10/10 08:55:57;;;;;;;11.27;7.20;;;;;;;26.12;28.18;99744.16;5030952;28;20487;-72
2021/10/10 08:58:25;;;;;;;11.10;7.57;;;;;;;26.15;29.44;99758.31;5033406;28;20013;-72
2021/10/10 09:01:00;;;;;;;12.63;7.75;;;;;;;26.19;28.41;99758.56;5032224;28;20037;-71
2021/10/10 09:03:26;;;;;;;13.82;7.85;;;;;;;27.04;27.70;99741.75;5021505;28;20483;-72
2021/10/10 09:05:51;;;;;;;11.75;7.85;;;;;;;26.26;28.01;99752.72;5024972;28;20108;-71
2021/10/10 09:08:17;;;;;;;11.80;8.43;;;;;;;25.23;29.05;99750.16;5014138;28;20621;-70
2021/10/10 09:10:43;;;;;;;13.80;8.07;;;;;;;25.65;29.36;99745.38;5028820;28;20120;-73
2021/10/10 09:13:14;;;;;;;13.63;7.63;;;;;;;26.39;27.93;99741.00;5027201;28;20108;-73
2021/10/10 09:15:43;;;;;;;11.38;7.90;;;;;;;24.89;30.15;99741.50;5027247;28;20033;-73
2021/10/10 09:18:10;;;;;;;11.35;7.65;;;;;;;24.40;31.02;99739.16;5027923;28;20035;-73
2021/10/10 09:20:39;;;;;;;13.48;7.93;;;;;;;26.65;27.96;99733.41;5019543;28;20042;-73
2021/10/10 09:23:08;;;;;;;11.05;7.75;;;;;;;26.04;28.08;99730.88;5022745;28;20033;-73
2021/10/10 09:25:34;;;;;;;17.90;7.93;;;;;;;25.74;29.55;99735.38;5020708;28;20025;-73
2021/10/10 09:28:18;;;;;;;11.98;7.65;;;;;;;25.52;28.73;99725.47;5012875;28;20052;-73
2021/10/10 09:30:48;;;;;;;12.45;8.02;;;;;;;25.82;28.51;99728.44;5029509;28;20036;-73
2021/10/10 09:33:14;;;;;;;12.95;8.25;;;;;;;25.95;27.57;99723.16;5019713;28;20030;-73
2021/10/10 09:35:40;;;;;;;11.95;7.75;;;;;;;24.51;28.80;99737.28;5023706;28;20083;-73
2021/10/10 09:38:28;;;;;;;11.93;7.90;;;;;;;26.40;27.19;99732.38;5026980;28;20029;-71
2021/10/10 09:41:09;;;;;;;12.25;7.95;;;;;;;25.57;27.59;99732.91;5023226;28;20053;-72
2021/10/10 09:44:12;;;;;;;11.70;7.85;;;;;;;26.24;27.27;99716.94;5028538;28;20080;-72
2021/10/10 09:46:42;;;;;;;13.68;8.35;;;;;;;24.74;28.56;99727.66;5029792;28;20035;-72
2021/10/10 09:49:19;;;;;;;14.27;7.07;;;;;;;27.00;26.95;99723.16;5023608;28;20026;-73
2021/10/10 09:51:44;;;;;;;12.55;7.72;;;;;;;28.10;25.84;99713.19;5022501;28;20025;-72
2021/10/10 09:54:09;;;;;;;10.73;7.15;;;;;;;28.53;26.23;99712.38;5018975;28;20502;-73
2021/10/10 09:56:35;;;;;;;9.70;7.40;;;;;;;28.78;24.75;99722.31;5043362;28;20703;-72
2021/10/10 09:59:01;;;;;;;15.10;7.95;;;;;;;28.72;25.26;99720.75;5025206;28;20286;-73
2021/10/10 10:01:30;;;;;;;13.50;7.72;;;;;;;27.88;25.76;99715.72;5030116;28;20117;-73
2021/10/10 10:03:58;;;;;;;11.63;7.78;;;;;;;27.51;25.76;99715.25;5023365;28;20029;-72
2021/10/10 10:06:26;;;;;;;12.55;6.68;;;;;;;28.46;24.49;99717.50;5025871;28;20025;-73
2021/10/10 10:08:52;;;;;;;11.35;7.53;;;;;;;27.68;26.05;99700.88;5016440;28;20092;-73
2021/10/10 10:11:19;;;;;;;13.23;7.10;;;;;;;28.81;24.31;99721.72;5009721;28;20026;-72
2021/10/10 10:13:44;;;;;;;14.02;7.38;;;;;;;26.47;25.58;99715.44;5020677;28;20037;-73
2021/10/10 10:16:13;;;;;;;13.13;8.05;;;;;;;26.46;25.90;99708.22;5027044;28;20037;-72
2021/10/10 10:18:40;;;;;;;11.15;6.97;;;;;;;27.39;25.60;99705.63;5019784;28;20026;-72
2021/10/10 10:21:07;;;;;;;13.02;7.13;;;;;;;26.07;26.25;99710.91;5010341;28;20467;-72
2021/10/10 10:23:34;;;;;;;10.68;7.68;;;;;;;26.83;26.00;99706.91;5024644;28;20036;-72
2021/10/10 10:25:59;;;;;;;14.98;7.70;;;;;;;24.81;27.67;99720.75;5029295;28;20116;-72
2021/10/10 10:28:25;;;;;;;10.63;6.97;;;;;;;24.57;27.58;99723.16;5024802;28;20763;-72
2021/10/10 10:30:50;;;;;;;10.27;7.47;;;;;;;24.02;29.48;99719.09;5028407;28;20424;-72
2021/10/10 10:33:16;;;;;;;11.32;7.30;;;;;;;26.26;27.04;99703.63;5019894;28;20055;-72
2021/10/10 10:35:43;;;;;;;9.07;6.55;;;;;;;28.60;23.81;99699.75;5013358;28;20091;-72
2021/10/10 10:38:09;;;;;;;12.00;6.90;;;;;;;28.00;24.87;99691.06;5026612;28;20246;-73
2021/10/10 10:40:36;;;;;;;12.13;6.93;;;;;;;28.82;24.20;99704.72;5028389;28;20072;-73
2021/10/10 10:43:04;;;;;;;13.80;7.28;;;;;;;28.67;23.11;99702.16;5020387;28;20040;-72
2021/10/10 10:45:33;;;;;;;11.63;7.35;;;;;;;27.72;24.58;99701.94;5009188;28;20030;-73
2021/10/10 10:48:31;;;;;;;14.40;6.93;;;;;;;27.11;25.80;99685.84;5034626;28;20056;-72
2021/10/10 10:51:28;;;;;;;11.70;6.93;;;;;;;27.41;25.57;99692.28;5007804;28;20044;-72
2021/10/10 10:54:13;;;;;;;12.57;7.28;;;;;;;27.39;24.33;99686.19;5009483;28;20088;-72
2021/10/10 10:56:39;;;;;;;11.73;7.10;;;;;;;26.92;24.55;99688.50;5015043;28;20112;-72
2021/10/10 10:59:04;;;;;;;10.70;6.43;;;;;;;26.73;24.14;99691.16;5023652;28;20123;-73
2021/10/10 11:02:00;;;;;;;11.23;5.97;;;;;;;27.65;23.12;99690.34;5025774;28;20087;-72
2021/10/10 11:04:26;;;;;;;15.88;6.95;;;;;;;26.99;24.21;99683.44;5013950;28;20052;-72
2021/10/10 11:07:08;;;;;;;10.07;6.38;;;;;;;26.52;25.30;99679.38;5027961;28;20686;-71
2021/10/10 11:09:43;;;;;;;11.43;6.75;;;;;;;26.23;27.27;99682.00;5012531;28;20040;-71
2021/10/10 11:12:09;;;;;;;11.63;7.68;;;;;;;26.96;27.16;99674.84;5019749;28;20131;-70
2021/10/10 11:14:34;;;;;;;19.05;7.55;;;;;;;25.95;28.59;99687.09;5027097;28;20030;-71
2021/10/10 11:17:10;;;;;;;12.43;7.45;;;;;;;26.97;27.30;99677.34;5026664;28;20021;-71
2021/10/10 11:19:35;;;;;;;17.67;7.22;;;;;;;28.06;25.65;99675.13;5009410;28;20789;-71
2021/10/10 11:22:01;;;;;;;9.52;6.43;;;;;;;28.14;25.23;99677.28;5013945;28;20116;-73
2021/10/10 11:24:26;;;;;;;12.93;6.07;;;;;;;27.35;25.60;99657.31;5014601;28;20515;-73
2021/10/10 11:26:52;;;;;;;8.70;6.23;;;;;;;28.46;24.81;99659.88;5017079;28;20040;-73
2021/10/10 11:29:20;;;;;;;10.95;6.32;;;;;;;29.59;23.68;99661.59;5011966;28;21091;-73